sensor_id;sensor_type;location;lat;lon;timestamp;P1;durP1;ratioP1;P2;durP2;ratioP2
8540;SDS011;4308;51.294;6.590;2022-12-18T00:01:51;29.87;;;13.90;;
8540;SDS011;4308;51.294;6.590;2022-12-18T00:04:22;30.97;;;13.43;;
8540;SDS011;4308;51.294;6.590;2022-12-18T00:06:51;24.03;;;12.90;;
8540;SDS011;4308;51.294;6.590;2022-12-18T00:09:18;24.20;;;11.47;;
8540;SDS011;4308;51.294;6.590;2022-12-18T00:11:46;25.93;;;11.40;;
8540;SDS011;4308;51.294;6.590;2022-12-18T00:14:14;24.93;;;12.13;;
8540;SDS011;4308;51.294;6.590;2022-12-18T00:16:43;19.70;;;10.17;;
8540;SDS011;4308;51.294;6.590;2022-12-18T00:19:10;20.23;;;10.07;;
8540;SDS011;4308;51.294;6.590;2022-12-18T00:21:38;19.53;;;10.40;;
8540;SDS011;4308;51.294;6.590;2022-12-18T00:24:06;24.83;;;10.83;;
8540;SDS011;4308;51.294;6.590;2022-12-18T00:26:34;15.77;;;9.47;;
8540;SDS011;4308;51.294;6.590;2022-12-18T00:29:03;23.73;;;10.30;;
8540;SDS011;4308;51.294;6.590;2022-12-18T00:31:31;20.90;;;10.23;;
8540;SDS011;4308;51.294;6.590;2022-12-18T00:33:59;18.30;;;10.03;;
8540;SDS011;4308;51.294;6.590;2022-12-18T00:36:30;18.80;;;10.53;;
8540;SDS011;4308;51.294;6.590;2022-12-18T00:39:02;19.90;;;8.73;;
8540;SDS011;4308;51.294;6.590;2022-12-18T00:41:30;18.37;;;10.37;;
8540;SDS011;4308;51.294;6.590;2022-12-18T00:43:57;20.47;;;9.93;;
8540;SDS011;4308;51.294;6.590;2022-12-18T00:46:25;20.43;;;10.30;;
8540;SDS011;4308;51.294;6.590;2022-12-18T00:48:54;19.07;;;10.37;;
8540;SDS011;4308;51.294;6.590;2022-12-18T00:51:22;17.97;;;9.43;;
8540;SDS011;4308;51.294;6.590;2022-12-18T00:53:49;19.10;;;10.27;;
8540;SDS011;4308;51.294;6.590;2022-12-18T00:56:17;23.70;;;10.73;;
8540;SDS011;4308;51.294;6.590;2022-12-18T00:58:45;20.23;;;11.00;;
8540;SDS011;4308;51.294;6.590;2022-12-18T01:01:12;21.60;;;10.87;;
8540;SDS011;4308;51.294;6.590;2022-12-18T01:03:40;18.47;;;10.10;;
8540;SDS011;4308;51.294;6.590;2022-12-18T01:06:09;19.83;;;10.17;;
8540;SDS011;4308;51.294;6.590;2022-12-18T01:08:37;21.20;;;10.90;;
8540;SDS011;4308;51.294;6.590;2022-12-18T01:11:08;16.80;;;10.13;;
8540;SDS011;4308;51.294;6.590;2022-12-18T01:13:36;17.40;;;10.47;;
8540;SDS011;4308;51.294;6.590;2022-12-18T01:16:04;20.20;;;10.17;;
8540;SDS011;4308;51.294;6.590;2022-12-18T01:18:32;20.33;;;10.70;;
8540;SDS011;4308;51.294;6.590;2022-12-18T01:20:59;18.93;;;10.57;;
8540;SDS011;4308;51.294;6.590;2022-12-18T01:23:27;18.77;;;10.17;;
8540;SDS011;4308;51.294;6.590;2022-12-18T01:25:54;20.83;;;10.40;;
8540;SDS011;4308;51.294;6.590;2022-12-18T01:28:22;18.47;;;10.23;;
8540;SDS011;4308;51.294;6.590;2022-12-18T01:30:49;18.83;;;10.10;;
8540;SDS011;4308;51.294;6.590;2022-12-18T01:33:17;20.50;;;10.40;;
8540;SDS011;4308;51.294;6.590;2022-12-18T01:35:45;19.60;;;10.13;;
8540;SDS011;4308;51.294;6.590;2022-12-18T01:38:12;14.37;;;8.30;;
8540;SDS011;4308;51.294;6.590;2022-12-18T01:40:42;24.60;;;10.63;;
8540;SDS011;4308;51.294;6.590;2022-12-18T01:43:09;20.47;;;10.90;;
8540;SDS011;4308;51.294;6.590;2022-12-18T01:45:37;23.00;;;10.23;;
8540;SDS011;4308;51.294;6.590;2022-12-18T01:48:05;18.33;;;9.83;;
8540;SDS011;4308;51.294;6.590;2022-12-18T01:50:35;19.90;;;10.13;;
8540;SDS011;4308;51.294;6.590;2022-12-18T01:55:32;20.87;;;10.43;;
8540;SDS011;4308;51.294;6.590;2022-12-18T01:58:02;18.43;;;9.70;;
8540;SDS011;4308;51.294;6.590;2022-12-18T02:00:30;18.93;;;10.53;;
8540;SDS011;4308;51.294;6.590;2022-12-18T02:02:58;18.57;;;9.00;;
8540;SDS011;4308;51.294;6.590;2022-12-18T02:05:33;17.30;;;10.17;;
8540;SDS011;4308;51.294;6.590;2022-12-18T02:08:11;19.20;;;10.50;;
8540;SDS011;4308;51.294;6.590;2022-12-18T02:10:43;18.83;;;9.50;;
8540;SDS011;4308;51.294;6.590;2022-12-18T02:14:00;20.23;;;9.60;;
8540;SDS011;4308;51.294;6.590;2022-12-18T02:18:32;18.57;;;9.53;;
8540;SDS011;4308;51.294;6.590;2022-12-18T02:21:04;20.30;;;10.40;;
8540;SDS011;4308;51.294;6.590;2022-12-18T02:28:41;18.73;;;11.10;;
8540;SDS011;4308;51.294;6.590;2022-12-18T02:31:11;18.43;;;10.90;;
8540;SDS011;4308;51.294;6.590;2022-12-18T02:33:41;20.60;;;10.57;;
8540;SDS011;4308;51.294;6.590;2022-12-18T02:36:10;20.67;;;11.23;;
8540;SDS011;4308;51.294;6.590;2022-12-18T02:38:39;21.43;;;11.33;;
8540;SDS011;4308;51.294;6.590;2022-12-18T02:41:07;20.00;;;10.50;;
8540;SDS011;4308;51.294;6.590;2022-12-18T02:43:34;20.67;;;10.10;;
8540;SDS011;4308;51.294;6.590;2022-12-18T02:46:20;20.90;;;10.67;;
8540;SDS011;4308;51.294;6.590;2022-12-18T02:48:50;19.40;;;10.17;;
8540;SDS011;4308;51.294;6.590;2022-12-18T02:51:24;24.47;;;11.07;;
8540;SDS011;4308;51.294;6.590;2022-12-18T02:53:57;22.07;;;11.70;;
8540;SDS011;4308;51.294;6.590;2022-12-18T02:56:26;23.37;;;10.87;;
8540;SDS011;4308;51.294;6.590;2022-12-18T02:58:59;20.43;;;10.17;;
8540;SDS011;4308;51.294;6.590;2022-12-18T03:02:04;21.07;;;11.47;;
8540;SDS011;4308;51.294;6.590;2022-12-18T03:04:32;24.50;;;11.50;;
8540;SDS011;4308;51.294;6.590;2022-12-18T03:07:03;17.33;;;9.93;;
8540;SDS011;4308;51.294;6.590;2022-12-18T03:09:36;22.57;;;10.33;;
8540;SDS011;4308;51.294;6.590;2022-12-18T03:14:35;18.40;;;9.73;;
8540;SDS011;4308;51.294;6.590;2022-12-18T03:17:05;18.30;;;9.30;;
8540;SDS011;4308;51.294;6.590;2022-12-18T03:19:35;16.57;;;8.40;;
8540;SDS011;4308;51.294;6.590;2022-12-18T03:22:03;17.23;;;9.40;;
8540;SDS011;4308;51.294;6.590;2022-12-18T03:24:31;19.23;;;10.57;;
8540;SDS011;4308;51.294;6.590;2022-12-18T03:27:01;19.03;;;9.97;;
8540;SDS011;4308;51.294;6.590;2022-12-18T03:29:32;15.60;;;8.63;;
8540;SDS011;4308;51.294;6.590;2022-12-18T03:32:21;21.00;;;10.07;;
8540;SDS011;4308;51.294;6.590;2022-12-18T03:34:51;23.73;;;11.50;;
8540;SDS011;4308;51.294;6.590;2022-12-18T03:37:20;16.93;;;10.30;;
8540;SDS011;4308;51.294;6.590;2022-12-18T03:39:48;24.23;;;11.43;;
8540;SDS011;4308;51.294;6.590;2022-12-18T03:50:17;20.87;;;10.27;;
8540;SDS011;4308;51.294;6.590;2022-12-18T03:52:49;15.43;;;9.33;;
8540;SDS011;4308;51.294;6.590;2022-12-18T03:55:17;14.43;;;9.67;;
8540;SDS011;4308;51.294;6.590;2022-12-18T03:57:46;18.00;;;9.90;;
8540;SDS011;4308;51.294;6.590;2022-12-18T04:00:15;18.83;;;9.93;;
8540;SDS011;4308;51.294;6.590;2022-12-18T04:02:45;21.53;;;10.10;;
8540;SDS011;4308;51.294;6.590;2022-12-18T04:05:15;16.73;;;9.07;;
8540;SDS011;4308;51.294;6.590;2022-12-18T04:07:43;15.90;;;9.10;;
8540;SDS011;4308;51.294;6.590;2022-12-18T04:10:11;16.77;;;9.37;;
8540;SDS011;4308;51.294;6.590;2022-12-18T04:12:38;16.03;;;8.73;;
8540;SDS011;4308;51.294;6.590;2022-12-18T04:15:06;18.20;;;8.93;;
8540;SDS011;4308;51.294;6.590;2022-12-18T04:17:34;17.30;;;8.63;;
8540;SDS011;4308;51.294;6.590;2022-12-18T04:20:01;15.40;;;9.27;;
8540;SDS011;4308;51.294;6.590;2022-12-18T04:22:29;17.50;;;8.30;;
8540;SDS011;4308;51.294;6.590;2022-12-18T04:24:56;14.27;;;8.77;;
8540;SDS011;4308;51.294;6.590;2022-12-18T04:27:24;15.73;;;8.77;;
8540;SDS011;4308;51.294;6.590;2022-12-18T04:29:51;16.77;;;8.90;;
8540;SDS011;4308;51.294;6.590;2022-12-18T04:32:19;16.33;;;8.40;;
8540;SDS011;4308;51.294;6.590;2022-12-18T04:34:46;12.70;;;8.07;;
8540;SDS011;4308;51.294;6.590;2022-12-18T04:37:13;17.27;;;9.07;;
8540;SDS011;4308;51.294;6.590;2022-12-18T04:39:41;14.80;;;8.93;;
8540;SDS011;4308;51.294;6.590;2022-12-18T04:42:08;14.47;;;7.87;;
8540;SDS011;4308;51.294;6.590;2022-12-18T04:44:36;14.60;;;9.23;;
8540;SDS011;4308;51.294;6.590;2022-12-18T04:47:03;15.33;;;9.10;;
8540;SDS011;4308;51.294;6.590;2022-12-18T04:49:31;17.77;;;8.77;;
8540;SDS011;4308;51.294;6.590;2022-12-18T04:51:58;14.30;;;8.40;;
8540;SDS011;4308;51.294;6.590;2022-12-18T04:54:26;14.83;;;8.77;;
8540;SDS011;4308;51.294;6.590;2022-12-18T04:56:53;13.10;;;7.63;;
8540;SDS011;4308;51.294;6.590;2022-12-18T04:59:21;17.23;;;9.07;;
8540;SDS011;4308;51.294;6.590;2022-12-18T05:01:49;19.27;;;9.23;;
8540;SDS011;4308;51.294;6.590;2022-12-18T05:04:16;16.70;;;8.60;;
8540;SDS011;4308;51.294;6.590;2022-12-18T05:06:45;14.20;;;8.50;;
8540;SDS011;4308;51.294;6.590;2022-12-18T05:09:13;14.10;;;9.10;;
8540;SDS011;4308;51.294;6.590;2022-12-18T05:11:41;13.70;;;8.90;;
8540;SDS011;4308;51.294;6.590;2022-12-18T05:14:08;14.97;;;8.87;;
8540;SDS011;4308;51.294;6.590;2022-12-18T05:16:36;14.30;;;8.77;;
8540;SDS011;4308;51.294;6.590;2022-12-18T05:19:03;16.80;;;8.90;;
8540;SDS011;4308;51.294;6.590;2022-12-18T05:21:31;18.53;;;8.00;;
8540;SDS011;4308;51.294;6.590;2022-12-18T05:23:58;15.70;;;9.00;;
8540;SDS011;4308;51.294;6.590;2022-12-18T05:26:26;17.27;;;8.93;;
8540;SDS011;4308;51.294;6.590;2022-12-18T05:28:53;14.83;;;7.57;;
8540;SDS011;4308;51.294;6.590;2022-12-18T05:31:21;16.50;;;8.03;;
8540;SDS011;4308;51.294;6.590;2022-12-18T05:33:48;16.50;;;8.53;;
8540;SDS011;4308;51.294;6.590;2022-12-18T05:36:16;15.03;;;8.30;;
8540;SDS011;4308;51.294;6.590;2022-12-18T05:38:43;16.00;;;8.83;;
8540;SDS011;4308;51.294;6.590;2022-12-18T05:41:10;13.47;;;7.20;;
8540;SDS011;4308;51.294;6.590;2022-12-18T05:43:38;14.70;;;6.93;;
8540;SDS011;4308;51.294;6.590;2022-12-18T05:46:16;15.07;;;7.53;;
8540;SDS011;4308;51.294;6.590;2022-12-18T05:48:44;12.10;;;7.33;;
8540;SDS011;4308;51.294;6.590;2022-12-18T05:51:16;14.37;;;7.60;;
8540;SDS011;4308;51.294;6.590;2022-12-18T05:53:44;19.77;;;9.07;;
8540;SDS011;4308;51.294;6.590;2022-12-18T05:56:14;17.60;;;8.93;;
8540;SDS011;4308;51.294;6.590;2022-12-18T05:58:41;18.00;;;9.97;;
8540;SDS011;4308;51.294;6.590;2022-12-18T06:01:10;14.97;;;8.60;;
8540;SDS011;4308;51.294;6.590;2022-12-18T06:03:40;18.83;;;9.00;;
8540;SDS011;4308;51.294;6.590;2022-12-18T06:06:15;13.27;;;8.23;;
8540;SDS011;4308;51.294;6.590;2022-12-18T06:08:43;16.83;;;8.23;;
8540;SDS011;4308;51.294;6.590;2022-12-18T06:11:12;17.37;;;8.57;;
8540;SDS011;4308;51.294;6.590;2022-12-18T06:13:40;16.13;;;8.00;;
8540;SDS011;4308;51.294;6.590;2022-12-18T06:16:08;11.63;;;7.33;;
8540;SDS011;4308;51.294;6.590;2022-12-18T06:18:36;13.97;;;7.93;;
8540;SDS011;4308;51.294;6.590;2022-12-18T06:21:03;13.73;;;8.13;;
8540;SDS011;4308;51.294;6.590;2022-12-18T06:23:31;12.40;;;7.40;;
8540;SDS011;4308;51.294;6.590;2022-12-18T06:25:58;13.90;;;7.67;;
8540;SDS011;4308;51.294;6.590;2022-12-18T06:28:26;16.07;;;7.83;;
8540;SDS011;4308;51.294;6.590;2022-12-18T06:30:53;12.97;;;7.70;;
8540;SDS011;4308;51.294;6.590;2022-12-18T06:33:21;11.63;;;7.57;;
8540;SDS011;4308;51.294;6.590;2022-12-18T06:35:48;17.67;;;9.17;;
8540;SDS011;4308;51.294;6.590;2022-12-18T06:38:16;13.10;;;7.33;;
8540;SDS011;4308;51.294;6.590;2022-12-18T06:40:43;11.00;;;6.13;;
8540;SDS011;4308;51.294;6.590;2022-12-18T06:43:11;13.07;;;7.23;;
8540;SDS011;4308;51.294;6.590;2022-12-18T06:45:38;15.07;;;7.27;;
8540;SDS011;4308;51.294;6.590;2022-12-18T06:48:06;14.13;;;8.30;;
8540;SDS011;4308;51.294;6.590;2022-12-18T06:50:33;14.20;;;7.80;;
8540;SDS011;4308;51.294;6.590;2022-12-18T06:53:01;14.97;;;7.90;;
8540;SDS011;4308;51.294;6.590;2022-12-18T06:55:29;14.03;;;8.83;;
8540;SDS011;4308;51.294;6.590;2022-12-18T06:57:56;16.90;;;8.67;;
8540;SDS011;4308;51.294;6.590;2022-12-18T07:00:24;13.03;;;7.67;;
8540;SDS011;4308;51.294;6.590;2022-12-18T07:02:51;13.07;;;7.77;;
8540;SDS011;4308;51.294;6.590;2022-12-18T07:05:19;15.90;;;8.17;;
8540;SDS011;4308;51.294;6.590;2022-12-18T07:07:46;12.47;;;7.80;;
8540;SDS011;4308;51.294;6.590;2022-12-18T07:10:14;14.43;;;7.73;;
8540;SDS011;4308;51.294;6.590;2022-12-18T07:12:41;14.47;;;7.80;;
8540;SDS011;4308;51.294;6.590;2022-12-18T07:15:12;13.23;;;7.37;;
8540;SDS011;4308;51.294;6.590;2022-12-18T07:17:47;12.77;;;7.20;;
8540;SDS011;4308;51.294;6.590;2022-12-18T07:20:17;13.83;;;7.53;;
8540;SDS011;4308;51.294;6.590;2022-12-18T07:22:45;14.40;;;7.60;;
8540;SDS011;4308;51.294;6.590;2022-12-18T07:25:20;14.10;;;6.97;;
8540;SDS011;4308;51.294;6.590;2022-12-18T07:27:47;10.87;;;6.37;;
8540;SDS011;4308;51.294;6.590;2022-12-18T07:30:15;10.63;;;6.37;;
8540;SDS011;4308;51.294;6.590;2022-12-18T07:32:43;13.67;;;6.97;;
8540;SDS011;4308;51.294;6.590;2022-12-18T07:35:10;11.20;;;6.80;;
8540;SDS011;4308;51.294;6.590;2022-12-18T07:37:38;15.80;;;7.47;;
8540;SDS011;4308;51.294;6.590;2022-12-18T07:40:06;12.27;;;7.60;;
8540;SDS011;4308;51.294;6.590;2022-12-18T07:42:33;13.90;;;7.90;;
8540;SDS011;4308;51.294;6.590;2022-12-18T07:45:01;13.97;;;8.63;;
8540;SDS011;4308;51.294;6.590;2022-12-18T07:47:33;14.13;;;7.93;;
8540;SDS011;4308;51.294;6.590;2022-12-18T07:50:02;14.77;;;8.33;;
8540;SDS011;4308;51.294;6.590;2022-12-18T07:52:30;16.57;;;9.10;;
8540;SDS011;4308;51.294;6.590;2022-12-18T07:54:58;17.00;;;8.63;;
8540;SDS011;4308;51.294;6.590;2022-12-18T07:57:26;17.33;;;9.03;;
8540;SDS011;4308;51.294;6.590;2022-12-18T08:00:13;15.37;;;7.80;;
8540;SDS011;4308;51.294;6.590;2022-12-18T08:02:41;17.13;;;8.70;;
8540;SDS011;4308;51.294;6.590;2022-12-18T08:05:09;13.87;;;8.03;;
8540;SDS011;4308;51.294;6.590;2022-12-18T08:07:36;12.30;;;7.60;;
8540;SDS011;4308;51.294;6.590;2022-12-18T08:10:04;14.20;;;8.83;;
8540;SDS011;4308;51.294;6.590;2022-12-18T08:12:32;21.08;;;7.60;;
8540;SDS011;4308;51.294;6.590;2022-12-18T08:15:02;15.57;;;8.00;;
8540;SDS011;4308;51.294;6.590;2022-12-18T08:17:30;17.90;;;9.77;;
8540;SDS011;4308;51.294;6.590;2022-12-18T08:19:58;13.70;;;8.40;;
8540;SDS011;4308;51.294;6.590;2022-12-18T08:22:25;16.30;;;8.03;;
8540;SDS011;4308;51.294;6.590;2022-12-18T08:24:53;12.43;;;8.10;;
8540;SDS011;4308;51.294;6.590;2022-12-18T08:27:20;15.13;;;8.30;;
8540;SDS011;4308;51.294;6.590;2022-12-18T08:29:56;13.47;;;8.13;;
8540;SDS011;4308;51.294;6.590;2022-12-18T08:32:24;17.87;;;7.73;;
8540;SDS011;4308;51.294;6.590;2022-12-18T08:34:52;14.43;;;7.53;;
8540;SDS011;4308;51.294;6.590;2022-12-18T08:37:19;18.70;;;7.87;;
8540;SDS011;4308;51.294;6.590;2022-12-18T08:39:47;15.90;;;8.77;;
8540;SDS011;4308;51.294;6.590;2022-12-18T08:42:14;14.30;;;8.00;;
8540;SDS011;4308;51.294;6.590;2022-12-18T08:44:42;16.97;;;8.70;;
8540;SDS011;4308;51.294;6.590;2022-12-18T08:47:11;17.30;;;8.07;;
8540;SDS011;4308;51.294;6.590;2022-12-18T08:49:39;8.80;;;5.80;;
8540;SDS011;4308;51.294;6.590;2022-12-18T08:52:06;14.90;;;8.20;;
8540;SDS011;4308;51.294;6.590;2022-12-18T08:54:34;13.90;;;8.33;;
8540;SDS011;4308;51.294;6.590;2022-12-18T08:57:01;14.77;;;8.10;;
8540;SDS011;4308;51.294;6.590;2022-12-18T08:59:29;16.53;;;9.13;;
8540;SDS011;4308;51.294;6.590;2022-12-18T09:01:57;14.73;;;7.53;;
8540;SDS011;4308;51.294;6.590;2022-12-18T09:04:24;12.90;;;7.17;;
8540;SDS011;4308;51.294;6.590;2022-12-18T09:06:52;15.97;;;8.90;;
8540;SDS011;4308;51.294;6.590;2022-12-18T09:09:19;15.83;;;7.93;;
8540;SDS011;4308;51.294;6.590;2022-12-18T09:11:49;13.17;;;8.10;;
8540;SDS011;4308;51.294;6.590;2022-12-18T09:14:17;14.93;;;7.80;;
8540;SDS011;4308;51.294;6.590;2022-12-18T09:16:44;15.93;;;7.90;;
8540;SDS011;4308;51.294;6.590;2022-12-18T09:19:14;19.33;;;9.13;;
8540;SDS011;4308;51.294;6.590;2022-12-18T09:21:41;13.63;;;8.40;;
8540;SDS011;4308;51.294;6.590;2022-12-18T09:24:14;13.73;;;8.27;;
8540;SDS011;4308;51.294;6.590;2022-12-18T09:26:42;13.57;;;6.83;;
8540;SDS011;4308;51.294;6.590;2022-12-18T09:29:13;13.63;;;8.03;;
8540;SDS011;4308;51.294;6.590;2022-12-18T09:31:41;12.67;;;7.90;;
8540;SDS011;4308;51.294;6.590;2022-12-18T09:34:09;19.48;;;10.63;;
8540;SDS011;4308;51.294;6.590;2022-12-18T09:36:37;12.93;;;8.70;;
8540;SDS011;4308;51.294;6.590;2022-12-18T09:39:04;14.43;;;8.47;;
8540;SDS011;4308;51.294;6.590;2022-12-18T09:46:50;12.70;;;6.93;;
8540;SDS011;4308;51.294;6.590;2022-12-18T09:49:19;19.70;;;8.40;;
8540;SDS011;4308;51.294;6.590;2022-12-18T09:51:59;12.83;;;7.87;;
8540;SDS011;4308;51.294;6.590;2022-12-18T09:54:36;14.23;;;7.63;;
8540;SDS011;4308;51.294;6.590;2022-12-18T09:57:15;13.03;;;7.07;;
8540;SDS011;4308;51.294;6.590;2022-12-18T09:59:46;13.90;;;8.20;;
8540;SDS011;4308;51.294;6.590;2022-12-18T10:02:22;12.63;;;8.00;;
8540;SDS011;4308;51.294;6.590;2022-12-18T10:05:02;14.33;;;8.43;;
8540;SDS011;4308;51.294;6.590;2022-12-18T10:08:13;12.60;;;8.13;;
8540;SDS011;4308;51.294;6.590;2022-12-18T10:21:01;14.40;;;8.03;;
8540;SDS011;4308;51.294;6.590;2022-12-18T10:23:33;17.27;;;8.90;;
8540;SDS011;4308;51.294;6.590;2022-12-18T10:26:12;14.53;;;7.53;;
8540;SDS011;4308;51.294;6.590;2022-12-18T10:28:40;15.23;;;8.27;;
8540;SDS011;4308;51.294;6.590;2022-12-18T10:31:14;11.77;;;6.90;;
8540;SDS011;4308;51.294;6.590;2022-12-18T10:33:43;12.37;;;6.93;;
8540;SDS011;4308;51.294;6.590;2022-12-18T10:36:10;18.03;;;8.53;;
8540;SDS011;4308;51.294;6.590;2022-12-18T10:38:38;14.87;;;7.50;;
8540;SDS011;4308;51.294;6.590;2022-12-18T10:41:27;13.17;;;8.03;;
8540;SDS011;4308;51.294;6.590;2022-12-18T10:46:41;14.13;;;8.47;;
8540;SDS011;4308;51.294;6.590;2022-12-18T10:49:18;15.23;;;8.90;;
8540;SDS011;4308;51.294;6.590;2022-12-18T10:51:46;15.80;;;8.30;;
8540;SDS011;4308;51.294;6.590;2022-12-18T10:54:15;18.47;;;9.63;;
8540;SDS011;4308;51.294;6.590;2022-12-18T10:56:43;17.00;;;8.17;;
8540;SDS011;4308;51.294;6.590;2022-12-18T10:59:13;18.60;;;9.27;;
8540;SDS011;4308;51.294;6.590;2022-12-18T11:01:45;15.07;;;8.20;;
8540;SDS011;4308;51.294;6.590;2022-12-18T11:04:17;16.97;;;9.50;;
8540;SDS011;4308;51.294;6.590;2022-12-18T11:06:56;16.97;;;9.57;;
8540;SDS011;4308;51.294;6.590;2022-12-18T11:09:28;15.23;;;9.23;;
8540;SDS011;4308;51.294;6.590;2022-12-18T11:11:57;17.27;;;10.00;;
8540;SDS011;4308;51.294;6.590;2022-12-18T11:16:53;19.60;;;9.53;;
8540;SDS011;4308;51.294;6.590;2022-12-18T11:19:41;16.70;;;9.33;;
8540;SDS011;4308;51.294;6.590;2022-12-18T11:27:53;17.33;;;9.70;;
8540;SDS011;4308;51.294;6.590;2022-12-18T11:30:29;17.03;;;9.50;;
8540;SDS011;4308;51.294;6.590;2022-12-18T11:35:38;16.47;;;8.27;;
8540;SDS011;4308;51.294;6.590;2022-12-18T11:38:17;17.17;;;9.80;;
8540;SDS011;4308;51.294;6.590;2022-12-18T11:40:45;16.53;;;9.80;;
8540;SDS011;4308;51.294;6.590;2022-12-18T11:43:15;17.57;;;9.07;;
8540;SDS011;4308;51.294;6.590;2022-12-18T11:45:52;18.80;;;9.23;;
8540;SDS011;4308;51.294;6.590;2022-12-18T11:48:22;18.03;;;10.13;;
8540;SDS011;4308;51.294;6.590;2022-12-18T11:53:21;16.97;;;9.47;;
8540;SDS011;4308;51.294;6.590;2022-12-18T12:01:13;20.37;;;9.57;;
8540;SDS011;4308;51.294;6.590;2022-12-18T12:06:59;15.13;;;8.37;;
8540;SDS011;4308;51.294;6.590;2022-12-18T12:22:55;16.13;;;9.93;;
8540;SDS011;4308;51.294;6.590;2022-12-18T12:30:43;18.37;;;10.27;;
8540;SDS011;4308;51.294;6.590;2022-12-18T12:38:28;15.93;;;8.80;;
8540;SDS011;4308;51.294;6.590;2022-12-18T12:40:58;18.80;;;10.10;;
8540;SDS011;4308;51.294;6.590;2022-12-18T12:46:04;21.27;;;11.10;;
8540;SDS011;4308;51.294;6.590;2022-12-18T12:51:12;20.57;;;9.83;;
8540;SDS011;4308;51.294;6.590;2022-12-18T12:53:40;17.97;;;10.00;;
8540;SDS011;4308;51.294;6.590;2022-12-18T12:56:10;21.80;;;10.87;;
8540;SDS011;4308;51.294;6.590;2022-12-18T13:06:14;23.87;;;11.43;;
8540;SDS011;4308;51.294;6.590;2022-12-18T13:08:52;26.77;;;12.13;;
8540;SDS011;4308;51.294;6.590;2022-12-18T13:13:57;20.27;;;10.70;;
8540;SDS011;4308;51.294;6.590;2022-12-18T13:16:25;21.00;;;11.30;;
8540;SDS011;4308;51.294;6.590;2022-12-18T13:18:54;21.67;;;12.07;;
8540;SDS011;4308;51.294;6.590;2022-12-18T13:21:30;18.53;;;11.03;;
8540;SDS011;4308;51.294;6.590;2022-12-18T13:24:44;21.37;;;11.53;;
8540;SDS011;4308;51.294;6.590;2022-12-18T13:26:46;20.73;;;11.27;;
8540;SDS011;4308;51.294;6.590;2022-12-18T13:29:14;25.13;;;13.57;;
8540;SDS011;4308;51.294;6.590;2022-12-18T13:32:15;21.00;;;11.90;;
8540;SDS011;4308;51.294;6.590;2022-12-18T13:34:48;18.20;;;10.07;;
8540;SDS011;4308;51.294;6.590;2022-12-18T13:39:58;20.13;;;11.63;;
8540;SDS011;4308;51.294;6.590;2022-12-18T13:44:57;18.23;;;10.77;;
8540;SDS011;4308;51.294;6.590;2022-12-18T13:49:55;19.60;;;11.60;;
8540;SDS011;4308;51.294;6.590;2022-12-18T13:52:24;19.27;;;10.87;;
8540;SDS011;4308;51.294;6.590;2022-12-18T13:54:56;18.03;;;9.73;;
8540;SDS011;4308;51.294;6.590;2022-12-18T13:59:52;20.73;;;11.90;;
8540;SDS011;4308;51.294;6.590;2022-12-18T14:02:27;15.43;;;8.83;;
8540;SDS011;4308;51.294;6.590;2022-12-18T14:04:55;22.70;;;12.53;;
8540;SDS011;4308;51.294;6.590;2022-12-18T14:07:23;26.23;;;14.47;;
8540;SDS011;4308;51.294;6.590;2022-12-18T14:09:57;29.20;;;13.70;;
8540;SDS011;4308;51.294;6.590;2022-12-18T14:12:47;28.43;;;15.10;;
8540;SDS011;4308;51.294;6.590;2022-12-18T14:17:59;21.70;;;12.37;;
8540;SDS011;4308;51.294;6.590;2022-12-18T14:20:29;30.97;;;14.40;;
8540;SDS011;4308;51.294;6.590;2022-12-18T14:22:58;24.70;;;13.33;;
8540;SDS011;4308;51.294;6.590;2022-12-18T14:25:27;21.63;;;12.40;;
8540;SDS011;4308;51.294;6.590;2022-12-18T14:30:30;25.43;;;14.20;;
8540;SDS011;4308;51.294;6.590;2022-12-18T14:35:57;34.77;;;16.10;;
8540;SDS011;4308;51.294;6.590;2022-12-18T14:38:36;27.77;;;16.15;;
8540;SDS011;4308;51.294;6.590;2022-12-18T14:41:05;42.40;;;20.40;;
8540;SDS011;4308;51.294;6.590;2022-12-18T14:43:34;30.23;;;15.70;;
8540;SDS011;4308;51.294;6.590;2022-12-18T14:46:02;23.23;;;11.73;;
8540;SDS011;4308;51.294;6.590;2022-12-18T14:51:03;28.03;;;14.17;;
8540;SDS011;4308;51.294;6.590;2022-12-18T14:58:49;31.57;;;15.97;;
8540;SDS011;4308;51.294;6.590;2022-12-18T15:01:21;27.77;;;13.07;;
8540;SDS011;4308;51.294;6.590;2022-12-18T15:03:50;31.33;;;15.97;;
8540;SDS011;4308;51.294;6.590;2022-12-18T15:06:37;30.53;;;15.83;;
8540;SDS011;4308;51.294;6.590;2022-12-18T15:09:18;25.70;;;13.33;;
8540;SDS011;4308;51.294;6.590;2022-12-18T15:11:47;21.97;;;12.83;;
8540;SDS011;4308;51.294;6.590;2022-12-18T15:14:30;26.17;;;12.70;;
8540;SDS011;4308;51.294;6.590;2022-12-18T15:16:59;27.37;;;13.33;;
8540;SDS011;4308;51.294;6.590;2022-12-18T15:19:37;25.00;;;13.90;;
8540;SDS011;4308;51.294;6.590;2022-12-18T15:24:49;27.77;;;14.00;;
8540;SDS011;4308;51.294;6.590;2022-12-18T15:27:33;24.47;;;12.87;;
8540;SDS011;4308;51.294;6.590;2022-12-18T15:32:32;23.87;;;12.97;;
8540;SDS011;4308;51.294;6.590;2022-12-18T15:35:02;22.13;;;12.13;;
8540;SDS011;4308;51.294;6.590;2022-12-18T15:37:30;32.60;;;15.10;;
8540;SDS011;4308;51.294;6.590;2022-12-18T15:39:57;26.27;;;14.57;;
8540;SDS011;4308;51.294;6.590;2022-12-18T15:42:25;23.93;;;13.67;;
8540;SDS011;4308;51.294;6.590;2022-12-18T15:44:52;27.80;;;13.33;;
8540;SDS011;4308;51.294;6.590;2022-12-18T15:47:20;25.63;;;14.47;;
8540;SDS011;4308;51.294;6.590;2022-12-18T15:49:47;29.70;;;15.27;;
8540;SDS011;4308;51.294;6.590;2022-12-18T15:52:15;20.37;;;11.33;;
8540;SDS011;4308;51.294;6.590;2022-12-18T15:54:43;27.70;;;13.37;;
8540;SDS011;4308;51.294;6.590;2022-12-18T15:57:11;26.90;;;15.57;;
8540;SDS011;4308;51.294;6.590;2022-12-18T15:59:38;24.30;;;14.40;;
8540;SDS011;4308;51.294;6.590;2022-12-18T16:02:09;25.87;;;14.03;;
8540;SDS011;4308;51.294;6.590;2022-12-18T16:04:43;23.47;;;13.83;;
8540;SDS011;4308;51.294;6.590;2022-12-18T16:07:11;28.13;;;14.83;;
8540;SDS011;4308;51.294;6.590;2022-12-18T16:09:45;27.87;;;14.93;;
8540;SDS011;4308;51.294;6.590;2022-12-18T16:12:16;28.77;;;16.23;;
8540;SDS011;4308;51.294;6.590;2022-12-18T16:14:44;29.10;;;14.80;;
8540;SDS011;4308;51.294;6.590;2022-12-18T16:17:14;26.47;;;14.07;;
8540;SDS011;4308;51.294;6.590;2022-12-18T16:19:42;28.47;;;15.30;;
8540;SDS011;4308;51.294;6.590;2022-12-18T16:22:28;29.43;;;16.20;;
8540;SDS011;4308;51.294;6.590;2022-12-18T16:24:56;28.33;;;13.63;;
8540;SDS011;4308;51.294;6.590;2022-12-18T16:27:24;29.97;;;15.90;;
8540;SDS011;4308;51.294;6.590;2022-12-18T16:29:52;30.53;;;15.00;;
8540;SDS011;4308;51.294;6.590;2022-12-18T16:32:20;29.00;;;15.60;;
8540;SDS011;4308;51.294;6.590;2022-12-18T16:34:48;36.50;;;15.53;;
8540;SDS011;4308;51.294;6.590;2022-12-18T16:37:16;31.50;;;16.13;;
8540;SDS011;4308;51.294;6.590;2022-12-18T16:39:43;27.53;;;15.37;;
8540;SDS011;4308;51.294;6.590;2022-12-18T16:42:18;30.87;;;15.57;;
8540;SDS011;4308;51.294;6.590;2022-12-18T16:44:46;32.50;;;16.17;;
8540;SDS011;4308;51.294;6.590;2022-12-18T16:47:15;30.93;;;16.17;;
8540;SDS011;4308;51.294;6.590;2022-12-18T16:49:43;26.07;;;14.73;;
8540;SDS011;4308;51.294;6.590;2022-12-18T16:52:11;26.30;;;13.93;;
8540;SDS011;4308;51.294;6.590;2022-12-18T16:54:42;32.23;;;16.77;;
8540;SDS011;4308;51.294;6.590;2022-12-18T16:57:15;26.87;;;13.67;;
8540;SDS011;4308;51.294;6.590;2022-12-18T16:59:44;27.33;;;15.40;;
8540;SDS011;4308;51.294;6.590;2022-12-18T17:02:15;35.87;;;17.83;;
8540;SDS011;4308;51.294;6.590;2022-12-18T17:05:03;23.80;;;14.13;;
8540;SDS011;4308;51.294;6.590;2022-12-18T17:07:32;32.87;;;16.20;;
8540;SDS011;4308;51.294;6.590;2022-12-18T17:10:02;30.80;;;15.83;;
8540;SDS011;4308;51.294;6.590;2022-12-18T17:12:30;29.23;;;15.93;;
8540;SDS011;4308;51.294;6.590;2022-12-18T17:14:57;25.67;;;14.50;;
8540;SDS011;4308;51.294;6.590;2022-12-18T17:17:25;29.97;;;16.63;;
8540;SDS011;4308;51.294;6.590;2022-12-18T17:19:52;30.20;;;15.63;;
8540;SDS011;4308;51.294;6.590;2022-12-18T17:22:23;27.93;;;15.83;;
8540;SDS011;4308;51.294;6.590;2022-12-18T17:24:53;32.50;;;18.20;;